Time;durP1;ratioP1;P1;durP2;ratioP2;P2;SDS_P1;SDS_P2;PMS_P1;PMS_P2;Temp;Humidity;BMP_temperature;BMP_pressure;BME280_temperature;BME280_humidity;BME280_pressure;Samples;Min_cycle;Max_cycle;Signal;HPM_P1;HPM_P2
2023/06/17 00:02:15;;;;;;;;;;;19.20;85.70;;;;;;5060279;28;19912;-75
2023/06/17 00:04:40;;;;;;;;;;;19.10;86.00;;;;;;5059942;28;20018;-75
2023/06/17 00:07:06;;;;;;;;;;;19.10;86.40;;;;;;5059051;28;21360;-75
2023/06/17 00:09:32;;;;;;;;;;;19.00;86.80;;;;;;5058371;28;20782;-76
2023/06/17 00:11:57;;;;;;;;;;;19.00;87.00;;;;;;5054371;28;20676;-76
2023/06/17 00:14:23;;;;;;;;;;;19.00;87.10;;;;;;5050753;28;19912;-75
2023/06/17 00:16:49;;;;;;;;;;;19.00;87.30;;;;;;5058630;28;19947;-76
2023/06/17 00:19:15;;;;;;;;;;;18.90;87.70;;;;;;5050554;28;19913;-76
2023/06/17 00:21:49;;;;;;;;;;;18.80;88.00;;;;;;5063263;28;20288;-76
2023/06/17 00:24:21;;;;;;;;;;;18.80;88.30;;;;;;5035659;28;19913;-76
2023/06/17 00:26:47;;;;;;;;;;;18.70;88.80;;;;;;5061470;28;20014;-76
2023/06/17 00:29:12;;;;;;;;;;;18.70;89.10;;;;;;5060534;28;20571;-76
2023/06/17 00:31:38;;;;;;;;;;;18.70;89.40;;;;;;5064042;28;19908;-76
2023/06/17 00:34:04;;;;;;;;;;;18.60;89.30;;;;;;5059926;28;20420;-76
2023/06/17 00:36:29;;;;;;;;;;;18.70;89.40;;;;;;5063839;28;19908;-76
2023/06/17 00:38:55;;;;;;;;;;;18.70;89.30;;;;;;5065008;28;19911;-76
2023/06/17 00:41:20;;;;;;;;;;;18.70;89.40;;;;;;5044526;28;19960;-75
2023/06/17 00:43:46;;;;;;;;;;;18.60;89.70;;;;;;5056279;28;19919;-75
2023/06/17 00:46:33;;;;;;;;;;;18.50;90.00;;;;;;5061869;28;19916;-75
2023/06/17 00:48:59;;;;;;;;;;;18.60;90.00;;;;;;5056323;28;20344;-75
2023/06/17 00:51:25;;;;;;;;;;;18.50;90.00;;;;;;5062565;28;19908;-76
2023/06/17 00:53:51;;;;;;;;;;;18.50;89.90;;;;;;5060321;28;20015;-75
2023/06/17 00:56:17;;;;;;;;;;;18.50;90.00;;;;;;5056884;28;19951;-75
2023/06/17 00:58:43;;;;;;;;;;;18.40;90.10;;;;;;5058936;28;20082;-75
2023/06/17 01:01:09;;;;;;;;;;;18.40;90.10;;;;;;5051986;28;19912;-75
2023/06/17 01:03:34;;;;;;;;;;;18.30;90.40;;;;;;5058041;28;19923;-76
2023/06/17 01:06:03;;;;;;;;;;;18.30;90.30;;;;;;5052209;28;20023;-76
2023/06/17 01:08:34;;;;;;;;;;;18.30;90.60;;;;;;5042535;28;19947;-75
2023/06/17 01:11:03;;;;;;;;;;;18.30;90.50;;;;;;5054672;28;20027;-75
2023/06/17 01:13:30;;;;;;;;;;;18.30;90.40;;;;;;5061154;28;20390;-75
2023/06/17 01:15:56;;;;;;;;;;;18.30;90.40;;;;;;5053704;28;19951;-76
2023/06/17 01:18:22;;;;;;;;;;;18.30;90.30;;;;;;5056227;28;19936;-75
2023/06/17 01:20:53;;;;;;;;;;;18.30;90.40;;;;;;5050332;28;20160;-75
2023/06/17 01:23:21;;;;;;;;;;;18.30;90.50;;;;;;5044856;28;19912;-75
2023/06/17 01:25:47;;;;;;;;;;;18.20;90.60;;;;;;5060366;28;20429;-75
2023/06/17 01:28:16;;;;;;;;;;;18.20;90.70;;;;;;5060949;28;19917;-74
2023/06/17 01:30:47;;;;;;;;;;;18.20;90.80;;;;;;5060807;28;19959;-75
2023/06/17 01:33:13;;;;;;;;;;;18.10;91.00;;;;;;5057990;28;20490;-74
2023/06/17 01:35:41;;;;;;;;;;;18.10;91.20;;;;;;5062756;28;19969;-75
2023/06/17 01:38:18;;;;;;;;;;;18.00;91.40;;;;;;5057575;28;19915;-75
2023/06/17 01:40:45;;;;;;;;;;;18.00;91.50;;;;;;5051819;28;19938;-75
2023/06/17 01:43:14;;;;;;;;;;;18.00;91.60;;;;;;5063206;28;20006;-74
2023/06/17 01:45:40;;;;;;;;;;;18.00;91.60;;;;;;5056260;28;19920;-74
2023/06/17 01:48:05;;;;;;;;;;;18.00;91.60;;;;;;5056550;28;20446;-74
2023/06/17 01:50:31;;;;;;;;;;;18.00;91.60;;;;;;5055637;28;19913;-74
2023/06/17 01:52:57;;;;;;;;;;;18.00;91.60;;;;;;5058926;28;19924;-74
2023/06/17 01:55:22;;;;;;;;;;;18.00;91.70;;;;;;5056411;28;19943;-74
2023/06/17 01:57:48;;;;;;;;;;;17.90;91.90;;;;;;5057600;28;19923;-74
2023/06/17 02:00:14;;;;;;;;;;;17.90;92.00;;;;;;5054196;28;19913;-74
2023/06/17 02:02:40;;;;;;;;;;;17.80;92.10;;;;;;5056154;28;19913;-74
2023/06/17 02:05:06;;;;;;;;;;;17.80;92.00;;;;;;5059512;28;19920;-75
2023/06/17 02:07:31;;;;;;;;;;;17.90;92.00;;;;;;5056307;28;19939;-74
2023/06/17 02:09:57;;;;;;;;;;;17.80;92.10;;;;;;5050851;28;21034;-74
2023/06/17 02:12:24;;;;;;;;;;;17.70;92.20;;;;;;5061380;28;19916;-75
2023/06/17 02:14:49;;;;;;;;;;;17.80;92.00;;;;;;5054233;28;19978;-74
2023/06/17 02:17:15;;;;;;;;;;;17.80;92.20;;;;;;5049300;28;20395;-74
2023/06/17 02:19:41;;;;;;;;;;;17.70;92.20;;;;;;5056841;28;20372;-74
2023/06/17 02:22:07;;;;;;;;;;;17.70;92.40;;;;;;5053693;28;20810;-75
2023/06/17 02:24:32;;;;;;;;;;;17.70;92.30;;;;;;5059003;28;19924;-74
2023/06/17 02:26:58;;;;;;;;;;;17.60;92.50;;;;;;5057669;28;20658;-74
2023/06/17 02:29:24;;;;;;;;;;;17.60;92.60;;;;;;5044304;28;19912;-74
2023/06/17 02:31:51;;;;;;;;;;;17.60;92.80;;;;;;5059480;28;19912;-74
2023/06/17 02:34:17;;;;;;;;;;;17.50;93.10;;;;;;5061834;28;19912;-74
2023/06/17 02:36:43;;;;;;;;;;;17.40;93.30;;;;;;5055236;28;19916;-74
2023/06/17 02:39:08;;;;;;;;;;;17.40;93.10;;;;;;5060219;28;20523;-75
2023/06/17 02:41:34;;;;;;;;;;;17.40;93.20;;;;;;5056429;28;19970;-75
2023/06/17 02:44:00;;;;;;;;;;;17.50;93.20;;;;;;5056522;28;19923;-75
2023/06/17 02:46:25;;;;;;;;;;;17.40;93.40;;;;;;5053716;28;19920;-74
2023/06/17 02:48:51;;;;;;;;;;;17.50;93.00;;;;;;5055157;28;20466;-74
2023/06/17 02:51:16;;;;;;;;;;;17.50;93.10;;;;;;5041260;28;20268;-75
2023/06/17 02:53:42;;;;;;;;;;;17.40;93.30;;;;;;5052536;28;19920;-75
2023/06/17 02:56:08;;;;;;;;;;;17.30;93.40;;;;;;5056136;28;19912;-76
2023/06/17 02:58:34;;;;;;;;;;;17.30;93.70;;;;;;5058906;28;20025;-75
2023/06/17 03:00:59;;;;;;;;;;;17.20;93.90;;;;;;5055838;28;20004;-74
2023/06/17 03:03:34;;;;;;;;;;;17.20;94.00;;;;;;5056416;28;19913;-74
2023/06/17 03:06:05;;;;;;;;;;;17.10;94.00;;;;;;5051290;28;19927;-76
2023/06/17 03:08:35;;;;;;;;;;;17.10;94.10;;;;;;5057070;28;20001;-75
2023/06/17 03:11:00;;;;;;;;;;;17.10;94.20;;;;;;5060198;28;19971;-75
2023/06/17 03:13:26;;;;;;;;;;;17.00;94.40;;;;;;5059760;28;20093;-76
2023/06/17 03:15:53;;;;;;;;;;;17.00;94.50;;;;;;5057834;28;20228;-74
2023/06/17 03:18:20;;;;;;;;;;;17.10;94.50;;;;;;5060156;28;20399;-74
2023/06/17 03:20:46;;;;;;;;;;;16.90;94.70;;;;;;5057926;28;19908;-74
2023/06/17 03:23:12;;;;;;;;;;;16.90;94.70;;;;;;5058702;28;19912;-74
2023/06/17 03:25:38;;;;;;;;;;;16.90;94.90;;;;;;5064405;28;20747;-74
2023/06/17 03:28:04;;;;;;;;;;;17.00;94.70;;;;;;5063457;28;19913;-74
2023/06/17 03:30:29;;;;;;;;;;;17.00;94.50;;;;;;5062753;28;19912;-74
2023/06/17 03:32:57;;;;;;;;;;;17.00;94.60;;;;;;5061527;28;20680;-74
2023/06/17 03:35:23;;;;;;;;;;;17.00;94.60;;;;;;5064239;28;20094;-74
2023/06/17 03:37:49;;;;;;;;;;;16.90;94.70;;;;;;5057743;28;19908;-75
2023/06/17 03:40:15;;;;;;;;;;;17.00;94.60;;;;;;5064201;28;19957;-74
2023/06/17 03:42:40;;;;;;;;;;;17.00;94.50;;;;;;5054636;28;19995;-74
2023/06/17 03:45:06;;;;;;;;;;;17.00;94.40;;;;;;5063010;28;19916;-74
2023/06/17 03:47:32;;;;;;;;;;;16.90;94.60;;;;;;5062726;28;20326;-74
2023/06/17 03:49:57;;;;;;;;;;;17.00;94.60;;;;;;5062883;28;19909;-74
2023/06/17 03:52:23;;;;;;;;;;;16.90;94.60;;;;;;5055944;28;20438;-74
2023/06/17 03:54:49;;;;;;;;;;;16.90;94.60;;;;;;5056657;28;20003;-74
2023/06/17 03:57:15;;;;;;;;;;;16.90;94.70;;;;;;5059478;28;20375;-74
2023/06/17 03:59:41;;;;;;;;;;;16.90;94.80;;;;;;5060975;28;19920;-74
2023/06/17 04:02:09;;;;;;;;;;;16.80;95.00;;;;;;5055737;28;19947;-74
2023/06/17 04:04:35;;;;;;;;;;;16.70;95.30;;;;;;5057580;28;20007;-74
2023/06/17 04:07:01;;;;;;;;;;;16.70;95.40;;;;;;5058836;28;20484;-74
2023/06/17 04:09:26;;;;;;;;;;;16.70;95.50;;;;;;5059323;28;19960;-74
2023/06/17 04:11:52;;;;;;;;;;;16.60;95.60;;;;;;5058001;28;19919;-74
2023/06/17 04:14:17;;;;;;;;;;;16.60;95.80;;;;;;5062460;28;19946;-74
2023/06/17 04:16:44;;;;;;;;;;;16.60;95.90;;;;;;5063930;28;20003;-74
2023/06/17 04:19:13;;;;;;;;;;;16.60;96.00;;;;;;5052558;28;20031;-74
2023/06/17 04:21:39;;;;;;;;;;;16.60;95.80;;;;;;5039025;28;19974;-74
2023/06/17 04:24:04;;;;;;;;;;;16.70;95.60;;;;;;5050491;28;20375;-74
2023/06/17 04:26:30;;;;;;;;;;;16.80;95.40;;;;;;5061069;28;20154;-74
2023/06/17 04:28:56;;;;;;;;;;;16.70;95.60;;;;;;5056003;28;19978;-74
2023/06/17 04:31:21;;;;;;;;;;;16.80;95.50;;;;;;5060908;28;19997;-74
2023/06/17 04:33:47;;;;;;;;;;;17.00;94.90;;;;;;5063185;28;19942;-75
2023/06/17 04:36:14;;;;;;;;;;;17.10;94.60;;;;;;5062163;28;19946;-75
2023/06/17 04:38:39;;;;;;;;;;;17.30;94.20;;;;;;5060660;28;19913;-75
2023/06/17 04:41:06;;;;;;;;;;;17.30;94.20;;;;;;5046003;28;19920;-75
2023/06/17 04:43:33;;;;;;;;;;;17.30;94.20;;;;;;5058491;28;19912;-75
2023/06/17 04:45:59;;;;;;;;;;;17.50;93.80;;;;;;5062818;28;20295;-74
2023/06/17 04:48:25;;;;;;;;;;;17.80;93.40;;;;;;5052362;28;20037;-74
2023/06/17 04:50:52;;;;;;;;;;;17.70;93.30;;;;;;5059681;28;20010;-74
2023/06/17 04:53:18;;;;;;;;;;;18.00;92.90;;;;;;5059011;28;19920;-74
2023/06/17 04:55:43;;;;;;;;;;;18.40;92.10;;;;;;5058994;28;20351;-74
2023/06/17 04:58:09;;;;;;;;;;;18.70;91.50;;;;;;5060969;28;19965;-74
2023/06/17 05:00:34;;;;;;;;;;;18.90;90.90;;;;;;5060152;28;19919;-74
2023/06/17 05:03:00;;;;;;;;;;;19.00;90.70;;;;;;5048418;28;20670;-74
2023/06/17 05:05:25;;;;;;;;;;;19.20;90.00;;;;;;5044655;28;19924;-76
2023/06/17 05:07:51;;;;;;;;;;;19.20;90.20;;;;;;5048680;28;19912;-74
2023/06/17 05:10:17;;;;;;;;;;;19.50;89.70;;;;;;5049267;28;19919;-73
2023/06/17 05:12:42;;;;;;;;;;;19.60;88.80;;;;;;5044896;28;19963;-73
2023/06/17 05:15:08;;;;;;;;;;;19.80;88.20;;;;;;5046560;28;19958;-74
2023/06/17 05:17:33;;;;;;;;;;;19.70;87.30;;;;;;5044154;28;19978;-74
2023/06/17 05:19:59;;;;;;;;;;;19.60;88.00;;;;;;5052772;28;19912;-73
2023/06/17 05:22:25;;;;;;;;;;;20.00;87.40;;;;;;5061736;28;19951;-73
2023/06/17 05:24:50;;;;;;;;;;;20.00;87.10;;;;;;5050666;28;20059;-74
2023/06/17 05:27:16;;;;;;;;;;;20.30;85.90;;;;;;5057000;28;19924;-73
2023/06/17 05:29:42;;;;;;;;;;;20.40;85.00;;;;;;5057047;28;19920;-74
2023/06/17 05:32:07;;;;;;;;;;;20.50;84.60;;;;;;5051575;28;20007;-74
2023/06/17 05:34:33;;;;;;;;;;;21.20;83.10;;;;;;5058736;28;19924;-74
2023/06/17 05:36:58;;;;;;;;;;;21.50;81.00;;;;;;5052837;28;19913;-74
2023/06/17 05:39:24;;;;;;;;;;;22.10;79.30;;;;;;5045409;28;19914;-74
2023/06/17 05:41:49;;;;;;;;;;;22.30;78.10;;;;;;5048165;28;19912;-74
2023/06/17 05:44:15;;;;;;;;;;;22.30;77.80;;;;;;5043133;28;20291;-74
2023/06/17 05:46:40;;;;;;;;;;;22.30;77.80;;;;;;5049302;28;19916;-75
2023/06/17 05:49:06;;;;;;;;;;;22.00;78.10;;;;;;5061345;28;20011;-74
2023/06/17 05:51:32;;;;;;;;;;;22.00;78.40;;;;;;5058208;28;21416;-75
2023/06/17 05:53:57;;;;;;;;;;;22.10;77.10;;;;;;5049985;28;19920;-74
2023/06/17 05:56:23;;;;;;;;;;;22.70;76.80;;;;;;5058996;28;20964;-75
2023/06/17 05:58:48;;;;;;;;;;;23.60;73.10;;;;;;5052589;28;20408;-74
2023/06/17 06:01:14;;;;;;;;;;;23.70;73.10;;;;;;5053518;28;19995;-74
2023/06/17 06:03:40;;;;;;;;;;;22.40;76.20;;;;;;5048306;28;19913;-74
2023/06/17 06:06:05;;;;;;;;;;;22.80;75.90;;;;;;5057096;28;19931;-74
2023/06/17 06:08:31;;;;;;;;;;;21.80;78.30;;;;;;5056822;28;19973;-75
2023/06/17 06:10:56;;;;;;;;;;;22.90;75.50;;;;;;5049071;28;19934;-74
2023/06/17 06:13:22;;;;;;;;;;;23.50;74.30;;;;;;5050253;28;20011;-74
2023/06/17 06:15:47;;;;;;;;;;;23.90;72.30;;;;;;5057169;28;19913;-74
2023/06/17 06:18:13;;;;;;;;;;;25.30;69.00;;;;;;5047419;28;20035;-74
2023/06/17 06:20:39;;;;;;;;;;;24.70;69.70;;;;;;5054992;28;20023;-74
2023/06/17 06:23:05;;;;;;;;;;;25.50;69.50;;;;;;5042848;28;20390;-75
2023/06/17 06:25:30;;;;;;;;;;;26.20;65.40;;;;;;5045186;28;20520;-75
2023/06/17 06:27:58;;;;;;;;;;;25.70;67.50;;;;;;5052431;28;20081;-74
2023/06/17 06:30:24;;;;;;;;;;;26.00;67.50;;;;;;5056038;28;19939;-74
2023/06/17 06:32:49;;;;;;;;;;;26.40;65.70;;;;;;5062136;28;20446;-73
2023/06/17 06:35:15;;;;;;;;;;;26.60;65.10;;;;;;5062374;28;20283;-76
2023/06/17 06:37:41;;;;;;;;;;;26.10;65.50;;;;;;5036106;28;19912;-74
2023/06/17 06:40:07;;;;;;;;;;;26.70;64.40;;;;;;5050308;28;20672;-74
2023/06/17 06:42:32;;;;;;;;;;;27.10;63.70;;;;;;5050143;28;20808;-74
2023/06/17 06:44:58;;;;;;;;;;;27.60;61.60;;;;;;5042139;28;20038;-73
2023/06/17 06:47:23;;;;;;;;;;;29.30;59.10;;;;;;5051520;28;19917;-73
2023/06/17 06:49:49;;;;;;;;;;;29.00;58.50;;;;;;5043275;28;19916;-74
2023/06/17 06:52:14;;;;;;;;;;;28.90;57.70;;;;;;5051737;28;19912;-73
2023/06/17 06:54:40;;;;;;;;;;;29.00;56.20;;;;;;5050546;28;20332;-74
2023/06/17 06:57:06;;;;;;;;;;;28.20;57.00;;;;;;5049186;28;20603;-72
2023/06/17 06:59:31;;;;;;;;;;;29.10;56.60;;;;;;5041550;28;19913;-72
2023/06/17 07:01:57;;;;;;;;;;;28.90;55.90;;;;;;5037414;28;20043;-73
2023/06/17 07:04:22;;;;;;;;;;;28.00;56.70;;;;;;5057499;28;19967;-74
2023/06/17 07:06:48;;;;;;;;;;;27.30;59.00;;;;;;5043476;28;20653;-77
2023/06/17 07:09:14;;;;;;;;;;;29.40;56.70;;;;;;5047885;28;19913;-75
2023/06/17 07:11:39;;;;;;;;;;;30.10;54.40;;;;;;5056213;28;20509;-76
2023/06/17 07:14:06;;;;;;;;;;;29.90;55.30;;;;;;5036483;28;19948;-77
2023/06/17 07:16:32;;;;;;;;;;;30.10;54.20;;;;;;5056949;28;20449;-75
2023/06/17 07:18:57;;;;;;;;;;;31.00;54.30;;;;;;5055896;28;19909;-76
2023/06/17 07:21:23;;;;;;;;;;;31.00;51.50;;;;;;5045717;28;19987;-78
2023/06/17 07:23:48;;;;;;;;;;;31.20;51.50;;;;;;5042781;28;20023;-77
2023/06/17 07:26:14;;;;;;;;;;;31.80;50.80;;;;;;5047263;28;19990;-76
2023/06/17 07:28:39;;;;;;;;;;;31.70;51.10;;;;;;5046306;28;19947;-79
2023/06/17 07:31:05;;;;;;;;;;;32.50;50.60;;;;;;5054193;28;20350;-77
2023/06/17 07:33:31;;;;;;;;;;;32.10;50.90;;;;;;5047433;28;19909;-76
2023/06/17 07:35:57;;;;;;;;;;;32.40;49.90;;;;;;5049373;28;20009;-76
2023/06/17 07:38:23;;;;;;;;;;;32.60;49.50;;;;;;5053650;28;19915;-75
2023/06/17 07:40:49;;;;;;;;;;;33.50;48.10;;;;;;5054783;28;19919;-77
2023/06/17 07:43:14;;;;;;;;;;;33.10;48.80;;;;;;5046213;28;20577;-76
2023/06/17 07:45:40;;;;;;;;;;;32.90;48.90;;;;;;5043386;28;19918;-76
2023/06/17 07:48:06;;;;;;;;;;;33.20;49.20;;;;;;5054535;28;19954;-76
2023/06/17 07:50:31;;;;;;;;;;;33.80;47.50;;;;;;5048817;28;20027;-76
2023/06/17 07:52:57;;;;;;;;;;;34.50;46.70;;;;;;5058459;28;20008;-76
2023/06/17 07:55:22;;;;;;;;;;;35.20;47.80;;;;;;5046092;28;19912;-77
2023/06/17 07:57:48;;;;;;;;;;;34.40;47.00;;;;;;5046036;28;19975;-77
2023/06/17 08:00:14;;;;;;;;;;;35.50;46.40;;;;;;5055673;28;20368;-78
2023/06/17 08:02:40;;;;;;;;;;;35.50;44.60;;;;;;5046474;28;19913;-77
2023/06/17 08:05:06;;;;;;;;;;;35.80;47.10;;;;;;5048847;28;20022;-79
2023/06/17 08:07:32;;;;;;;;;;;35.00;45.00;;;;;;5045668;28;20003;-75
2023/06/17 08:09:57;;;;;;;;;;;35.20;44.40;;;;;;5055646;28;20027;-76
2023/06/17 08:12:23;;;;;;;;;;;35.70;44.20;;;;;;5049389;28;19923;-77
2023/06/17 08:14:49;;;;;;;;;;;36.40;43.90;;;;;;5063064;28;19966;-76
2023/06/17 08:17:14;;;;;;;;;;;35.40;44.60;;;;;;5050937;28;20564;-75
2023/06/17 08:19:40;;;;;;;;;;;35.80;43.90;;;;;;5049171;28;19908;-78
2023/06/17 08:22:06;;;;;;;;;;;35.10;43.10;;;;;;5053432;28;19915;-77
2023/06/17 08:24:32;;;;;;;;;;;35.10;46.70;;;;;;5050142;28;19908;-77
2023/06/17 08:26:58;;;;;;;;;;;36.30;43.90;;;;;;5053161;28;20456;-75
2023/06/17 08:29:23;;;;;;;;;;;36.30;42.70;;;;;;5063363;28;20011;-79
2023/06/17 08:31:50;;;;;;;;;;;35.90;44.10;;;;;;5058073;28;19912;-76
2023/06/17 08:34:16;;;;;;;;;;;36.00;44.30;;;;;;5065315;28;19908;-78
2023/06/17 08:36:43;;;;;;;;;;;36.80;45.10;;;;;;5048385;28;20776;-78
2023/06/17 08:39:08;;;;;;;;;;;37.20;43.10;;;;;;5053604;28;19912;-78
2023/06/17 08:41:41;;;;;;;;;;;36.80;43.00;;;;;;5061960;28;19908;-77
2023/06/17 08:44:07;;;;;;;;;;;37.60;43.40;;;;;;5056453;28;19919;-76
2023/06/17 08:46:33;;;;;;;;;;;38.40;42.90;;;;;;5061434;28;19943;-76
2023/06/17 08:48:59;;;;;;;;;;;39.50;41.90;;;;;;5051186;28;20649;-75
2023/06/17 08:51:25;;;;;;;;;;;40.10;41.20;;;;;;5063003;28;19912;-77
2023/06/17 08:53:51;;;;;;;;;;;38.40;40.50;;;;;;5058073;28;19920;-78
2023/06/17 08:56:17;;;;;;;;;;;39.00;42.20;;;;;;5063568;28;19912;-76
2023/06/17 08:58:44;;;;;;;;;;;38.40;37.80;;;;;;5038279;28;19921;-77
2023/06/17 09:01:10;;;;;;;;;;;38.30;41.80;;;;;;5052776;28;19912;-76
2023/06/17 09:03:38;;;;;;;;;;;39.40;40.90;;;;;;5055888;28;19951;-76
2023/06/17 09:06:24;;;;;;;;;;;39.10;40.10;;;;;;5051458;28;19920;-77
2023/06/17 09:08:50;;;;;;;;;;;39.10;40.90;;;;;;5046582;28;19962;-77
2023/06/17 09:11:16;;;;;;;;;;;39.70;42.20;;;;;;5054334;28;19923;-76
2023/06/17 09:13:42;;;;;;;;;;;39.30;41.00;;;;;;5062964;28;20442;-78
2023/06/17 09:16:08;;;;;;;;;;;39.90;39.30;;;;;;5037179;28;19909;-76
2023/06/17 09:18:34;;;;;;;;;;;40.40;36.30;;;;;;5050897;28;20039;-76
2023/06/17 09:21:01;;;;;;;;;;;40.90;38.00;;;;;;5055404;28;20010;-77
2023/06/17 09:23:27;;;;;;;;;;;41.30;37.50;;;;;;5045348;28;19913;-76
2023/06/17 09:26:04;;;;;;;;;;;41.10;36.80;;;;;;5056093;28;19974;-76
2023/06/17 09:28:30;;;;;;;;;;;40.80;37.70;;;;;;5035992;28;20337;-77
2023/06/17 09:30:59;;;;;;;;;;;41.60;36.80;;;;;;5028868;28;19913;-77
2023/06/17 09:33:25;;;;;;;;;;;41.80;36.40;;;;;;5054115;28;20034;-77
2023/06/17 09:35:57;;;;;;;;;;;41.30;36.00;;;;;;5046733;28;20081;-78
2023/06/17 09:38:23;;;;;;;;;;;41.00;37.10;;;;;;5048528;28;19916;-78
2023/06/17 09:40:49;;;;;;;;;;;41.60;36.60;;;;;;5060960;28;20295;-78
2023/06/17 09:43:15;;;;;;;;;;;42.20;35.40;;;;;;5036806;28;20389;-77
2023/06/17 09:45:41;;;;;;;;;;;40.40;36.40;;;;;;5062332;28;19916;-78
2023/06/17 09:48:09;;;;;;;;;;;40.20;36.10;;;;;;5040730;28;19913;-78
2023/06/17 09:50:37;;;;;;;;;;;40.60;35.80;;;;;;5045662;28;19943;-77
2023/06/17 09:53:02;;;;;;;;;;;40.70;36.60;;;;;;5042529;28;19927;-78
2023/06/17 09:55:28;;;;;;;;;;;41.80;35.50;;;;;;5055006;28;20449;-78
2023/06/17 09:57:54;;;;;;;;;;;41.20;36.10;;;;;;5049858;28;20290;-78
2023/06/17 10:00:24;;;;;;;;;;;41.20;36.30;;;;;;5049502;28;20374;-78
2023/06/17 10:02:51;;;;;;;;;;;42.20;35.40;;;;;;5046652;28;19970;-78
2023/06/17 10:05:17;;;;;;;;;;;42.10;34.10;;;;;;5053913;28;20552;-78
2023/06/17 10:07:43;;;;;;;;;;;41.80;34.50;;;;;;5043248;28;19979;-79
2023/06/17 10:10:09;;;;;;;;;;;41.20;34.00;;;;;;5053713;28;19970;-78
2023/06/17 10:12:36;;;;;;;;;;;39.80;34.80;;;;;;5047522;28;19923;-77
2023/06/17 10:15:03;;;;;;;;;;;40.70;34.20;;;;;;5043203;28;19935;-78
2023/06/17 10:17:30;;;;;;;;;;;40.40;38.50;;;;;;5054333;28;19951;-77
2023/06/17 10:19:56;;;;;;;;;;;41.00;38.60;;;;;;5053165;28;19920;-77
2023/06/17 10:22:22;;;;;;;;;;;41.50;37.50;;;;;;5045408;28;20393;-77
2023/06/17 10:24:49;;;;;;;;;;;41.00;36.60;;;;;;5042903;28;19913;-77
2023/06/17 10:27:15;;;;;;;;;;;42.10;36.30;;;;;;5036393;28;19912;-78
2023/06/17 10:29:42;;;;;;;;;;;41.40;35.90;;;;;;5053324;28;19908;-77
2023/06/17 10:32:20;;;;;;;;;;;39.70;36.20;;;;;;5044668;28;19985;-76
2023/06/17 10:35:04;;;;;;;;;;;39.80;39.70;;;;;;5058709;28;19967;-76
2023/06/17 10:37:30;;;;;;;;;;;41.30;37.70;;;;;;5057959;28;19915;-77
2023/06/17 10:40:15;;;;;;;;;;;41.80;35.90;;;;;;5046091;28;19920;-77
2023/06/17 10:42:51;;;;;;;;;;;40.40;36.40;;;;;;5038517;28;19909;-77
2023/06/17 10:45:17;;;;;;;;;;;39.60;39.10;;;;;;5056411;28;19916;-77
2023/06/17 10:47:42;;;;;;;;;;;38.60;39.10;;;;;;5052011;28;20307;-77
2023/06/17 10:50:11;;;;;;;;;;;36.80;39.60;;;;;;5040446;28;20005;-76
2023/06/17 10:52:38;;;;;;;;;;;35.90;40.70;;;;;;5049475;28;19931;-77
2023/06/17 10:55:04;;;;;;;;;;;34.70;45.10;;;;;;5046447;28;20014;-77
2023/06/17 10:57:31;;;;;;;;;;;35.10;43.30;;;;;;5051534;28;20425;-76
2023/06/17 11:00:06;;;;;;;;;;;34.80;43.40;;;;;;5048991;28;19962;-77
2023/06/17 11:02:32;;;;;;;;;;;34.30;45.90;;;;;;5044512;28;20421;-76
2023/06/17 11:04:58;;;;;;;;;;;32.90;44.70;;;;;;5046013;28;19916;-77
2023/06/17 11:07:27;;;;;;;;;;;33.10;46.50;;;;;;5047533;28;20439;-76
2023/06/17 11:09:52;;;;;;;;;;;33.40;43.80;;;;;;5056175;28;20444;-77
2023/06/17 11:12:18;;;;;;;;;;;33.40;41.80;;;;;;5051356;28;19919;-77
2023/06/17 11:14:43;;;;;;;;;;;32.30;43.00;;;;;;5054029;28;20027;-77
2023/06/17 11:17:09;;;;;;;;;;;32.40;44.10;;;;;;5046908;28;19919;-76
2023/06/17 11:19:35;;;;;;;;;;;32.90;43.40;;;;;;5055176;28;20369;-76
2023/06/17 11:22:03;;;;;;;;;;;32.20;43.40;;;;;;5057528;28;19912;-77
2023/06/17 11:24:30;;;;;;;;;;;31.90;44.20;;;;;;5041192;28;19912;-77
2023/06/17 11:26:56;;;;;;;;;;;32.00;44.30;;;;;;5054532;28;20339;-76
2023/06/17 11:29:22;;;;;;;;;;;32.00;44.80;;;;;;5059737;28;19908;-76
2023/06/17 11:31:48;;;;;;;;;;;31.60;43.80;;;;;;5063284;28;19912;-77
2023/06/17 11:34:14;;;;;;;;;;;31.00;46.30;;;;;;5062259;28;20045;-77
2023/06/17 11:36:40;;;;;;;;;;;31.00;46.20;;;;;;5058630;28;20087;-76
2023/06/17 11:39:08;;;;;;;;;;;31.30;45.20;;;;;;5063885;28;19908;-77
2023/06/17 11:41:34;;;;;;;;;;;30.80;45.90;;;;;;5054305;28;19953;-77
2023/06/17 11:44:00;;;;;;;;;;;30.60;49.20;;;;;;5049329;28;20031;-76
2023/06/17 11:46:26;;;;;;;;;;;30.80;47.30;;;;;;5053031;28;19923;-76
2023/06/17 11:48:52;;;;;;;;;;;31.30;47.70;;;;;;5058849;28;19931;-76
2023/06/17 11:51:18;;;;;;;;;;;31.40;45.70;;;;;;5071783;28;20441;-77
2023/06/17 11:53:44;;;;;;;;;;;31.30;47.50;;;;;;5061576;28;19924;-76
2023/06/17 11:56:10;;;;;;;;;;;31.10;49.90;;;;;;5064096;28;20394;-76
2023/06/17 11:58:39;;;;;;;;;;;31.20;50.00;;;;;;5046626;28;20028;-78
2023/06/17 12:01:05;;;;;;;;;;;31.10;49.80;;;;;;5053664;28;19913;-77
2023/06/17 12:03:31;;;;;;;;;;;31.10;52.00;;;;;;5042397;28;19912;-76
2023/06/17 12:05:57;;;;;;;;;;;30.80;49.10;;;;;;5066873;28;19927;-76
2023/06/17 12:08:23;;;;;;;;;;;30.70;49.20;;;;;;5052812;28;19912;-76
2023/06/17 12:10:49;;;;;;;;;;;30.50;47.80;;;;;;5054533;28;19909;-77
2023/06/17 12:13:16;;;;;;;;;;;30.60;53.20;;;;;;5052829;28;20755;-76
2023/06/17 12:15:42;;;;;;;;;;;30.80;50.10;;;;;;5055946;28;19908;-77
2023/06/17 12:18:09;;;;;;;;;;;30.90;51.50;;;;;;5059657;28;20389;-76
2023/06/17 12:20:36;;;;;;;;;;;30.70;53.40;;;;;;5055430;28;19912;-77
2023/06/17 12:23:02;;;;;;;;;;;30.70;53.10;;;;;;5059986;28;19966;-76
2023/06/17 12:25:28;;;;;;;;;;;30.60;52.50;;;;;;5049095;28;19921;-76
2023/06/17 12:27:54;;;;;;;;;;;30.40;49.30;;;;;;5056928;28;20300;-78
2023/06/17 12:30:20;;;;;;;;;;;30.40;48.40;;;;;;5062074;28;19926;-78
2023/06/17 12:32:45;;;;;;;;;;;30.50;49.10;;;;;;5054826;28;19943;-77
2023/06/17 12:35:11;;;;;;;;;;;30.30;48.60;;;;;;5055157;28;19912;-78
2023/06/17 12:37:39;;;;;;;;;;;30.10;47.60;;;;;;5057125;28;19912;-77
2023/06/17 12:40:06;;;;;;;;;;;29.90;48.80;;;;;;5056714;28;19912;-78
2023/06/17 12:42:32;;;;;;;;;;;30.20;47.90;;;;;;5047129;28;20070;-78
2023/06/17 12:44:57;;;;;;;;;;;30.10;45.20;;;;;;5039961;28;20686;-80
2023/06/17 12:47:23;;;;;;;;;;;30.00;45.40;;;;;;5046746;28;20985;-79
2023/06/17 12:49:49;;;;;;;;;;;29.90;44.20;;;;;;5058998;28;19912;-79
2023/06/17 12:52:15;;;;;;;;;;;29.90;44.40;;;;;;5058648;28;19908;-78
2023/06/17 12:54:44;;;;;;;;;;;29.70;44.40;;;;;;5038969;28;20112;-78
2023/06/17 12:57:10;;;;;;;;;;;29.70;45.30;;;;;;5059045;28;19912;-78
2023/06/17 12:59:36;;;;;;;;;;;29.70;46.40;;;;;;5037144;28;19921;-79
2023/06/17 13:02:02;;;;;;;;;;;29.80;46.40;;;;;;5060890;28;19908;-79
2023/06/17 13:04:27;;;;;;;;;;;29.80;44.30;;;;;;5058449;28;19913;-78
2023/06/17 13:06:53;;;;;;;;;;;29.80;47.20;;;;;;5062645;28;19916;-79
2023/06/17 13:09:19;;;;;;;;;;;29.60;45.80;;;;;;5053491;28;19916;-79
2023/06/17 13:11:45;;;;;;;;;;;29.60;47.10;;;;;;5042484;28;19919;-79
2023/06/17 13:14:10;;;;;;;;;;;29.50;47.50;;;;;;5049972;28;19912;-78
2023/06/17 13:16:36;;;;;;;;;;;29.50;47.50;;;;;;5051338;28;19913;-79
2023/06/17 13:19:03;;;;;;;;;;;29.50;49.10;;;;;;5049234;28;19952;-79
2023/06/17 13:21:28;;;;;;;;;;;29.60;48.70;;;;;;5053873;28;20004;-79
2023/06/17 13:23:54;;;;;;;;;;;29.60;48.40;;;;;;5050810;28;19912;-80
2023/06/17 13:26:22;;;;;;;;;;;29.50;49.70;;;;;;5051054;28;19924;-78
2023/06/17 13:28:47;;;;;;;;;;;29.40;46.30;;;;;;5056087;28;19916;-79
2023/06/17 13:31:13;;;;;;;;;;;29.40;45.60;;;;;;5062989;28;19919;-80
2023/06/17 13:33:39;;;;;;;;;;;29.40;47.10;;;;;;5053265;28;20364;-78
2023/06/17 13:36:04;;;;;;;;;;;29.40;45.00;;;;;;5062910;28;20454;-79
2023/06/17 13:38:30;;;;;;;;;;;29.40;47.30;;;;;;5056958;28;20731;-78
2023/06/17 13:40:56;;;;;;;;;;;29.40;45.10;;;;;;5055658;28;19991;-77
2023/06/17 13:43:22;;;;;;;;;;;29.40;46.30;;;;;;5033745;28;19955;-78
2023/06/17 13:45:47;;;;;;;;;;;29.20;44.40;;;;;;5054913;28;19955;-81
2023/06/17 13:48:13;;;;;;;;;;;29.10;44.70;;;;;;5038347;28;19920;-79
2023/06/17 13:50:38;;;;;;;;;;;29.10;43.90;;;;;;5050637;28;19912;-78
2023/06/17 13:53:04;;;;;;;;;;;29.00;44.70;;;;;;5054350;28;19920;-79
2023/06/17 13:55:31;;;;;;;;;;;29.20;45.70;;;;;;5031733;28;19919;-79
2023/06/17 13:57:57;;;;;;;;;;;29.30;45.30;;;;;;5057737;28;19916;-78
2023/06/17 14:00:23;;;;;;;;;;;29.40;45.70;;;;;;5056290;28;19923;-79
2023/06/17 14:02:48;;;;;;;;;;;29.40;45.70;;;;;;5056884;28;20258;-79
2023/06/17 14:05:14;;;;;;;;;;;29.20;44.00;;;;;;5054448;28;19931;-78
2023/06/17 14:07:40;;;;;;;;;;;29.20;44.40;;;;;;5061292;28;20397;-79
2023/06/17 14:10:06;;;;;;;;;;;29.20;42.80;;;;;;5052088;28;19954;-79
2023/06/17 14:12:32;;;;;;;;;;;29.10;43.70;;;;;;5056056;28;20330;-79